KBLH

Details ICAO KBLH (BLH)
Name BLYTHE
Region United States
Timezone America/Los_Angeles (UTC-7.0)
Plans Departing 15
Arriving 25
Stats Elevation 399 ft / 122 m (AMSL)
Location 33.619300° -114.717000°
Runways 2
Magnetic Variation 10.980° E
Sunrise 2019-05-18 12:37:42 UTC / 2019-05-18 05:37:42 Local
Sunset 2019-05-19 02:35:42 UTC / 2019-05-18 19:35:42 Local
Advertisement - Login to hide

Runways

ID Width Length Bearing (true/mag) Surface Threshold Overrun Markings Lighting
08 150 ft / 46 m 6,531 ft / 1,991 m 90.21° / 79.23° ASPHALT 0 ft / 0 m 769 ft / 234 m APP EDGE THRESHOLD
17 100 ft / 30 m 5,816 ft / 1,773 m 180.22° / 169.24° ASPHALT 0 ft / 0 m 212 ft / 65 m APP EDGE THRESHOLD
26 150 ft / 46 m 6,531 ft / 1,991 m 270.22° / 259.24° ASPHALT 0 ft / 0 m 424 ft / 129 m APP EDGE THRESHOLD
35 100 ft / 30 m 5,816 ft / 1,773 m 0.22° / 349.24° ASPHALT 0 ft / 0 m 200 ft / 61 m APP EDGE THRESHOLD

Map

Weather


0- 5 10 15 20 25 30 35+ Temperature / °C

Clouds and Precipitation
Forecast for 2019-05-19 06:00 UTC. Updated 3 hours ago

Ground ~20,000 ft ~40,000 ft Winds

METAR

KBLH 190652Z AUTO 20008KT 10SM CLR 23/04 A2975 RMK AO2 SLP070 T02280044

TAF

KBLH 190540Z 1906/2006 22015KT P6SM BKN200 FM191600 23015G25KT P6SM SCT100 BKN200 FM192100 23022G33KT P6SM BKN250

Frequencies

Unicom 122.80 MHz CTAF/UNICOM
Recorded 120.17 MHz ASOS
Warning: Do not use this data for real-world aviation or navigation. No guarantee of current accuracy is given.